createdAt,value
2018-05-26T00:01:25.517Z,101475.25
2018-05-26T00:03:53.708Z,101472.02
2018-05-26T00:06:21.874Z,101478.41
2018-05-26T00:08:50.052Z,101474.74
2018-05-26T00:11:18.267Z,101470.84
2018-05-26T00:13:46.527Z,101469.30
2018-05-26T00:16:14.701Z,101465.91
2018-05-26T00:18:42.849Z,101467.87
2018-05-26T00:21:11.041Z,101472.56
2018-05-26T00:23:39.201Z,101471.84
2018-05-26T00:26:07.393Z,101471.84
2018-05-26T00:28:35.576Z,101465.19
2018-05-26T00:31:03.728Z,101469.88
2018-05-26T00:33:31.927Z,101466.98
2018-05-26T00:36:00.084Z,101469.35
2018-05-26T00:38:28.283Z,101475.84
2018-05-26T00:40:56.544Z,101477.89
2018-05-26T00:43:24.731Z,101476.08
2018-05-26T00:45:52.910Z,101479.03
2018-05-26T00:48:21.084Z,101482.44
2018-05-26T00:50:49.297Z,101482.01
2018-05-26T00:53:17.486Z,101485.34
2018-05-26T00:55:45.681Z,101485.86
2018-05-26T00:58:13.896Z,101491.30
2018-05-26T01:00:42.077Z,101484.16
2018-05-26T01:03:10.260Z,101488.25
2018-05-26T01:05:38.433Z,101491.20
2018-05-26T01:08:06.643Z,101486.16
2018-05-26T01:10:34.790Z,101486.75
2018-05-26T01:13:02.976Z,101488.88
2018-05-26T01:15:31.178Z,101488.56
2018-05-26T01:17:59.336Z,101490.95
2018-05-26T01:20:27.547Z,101487.63
2018-05-26T01:22:55.709Z,101493.03
2018-05-26T01:25:23.979Z,101489.67
2018-05-26T01:27:52.140Z,101491.31
2018-05-26T01:30:20.341Z,101493.82
2018-05-26T01:32:48.545Z,101484.99
2018-05-26T01:35:16.733Z,101491.73
2018-05-26T01:37:44.944Z,101489.01
2018-05-26T01:40:13.158Z,101487.35
2018-05-26T01:42:41.317Z,101489.66
2018-05-26T01:45:09.580Z,101480.99
2018-05-26T01:47:37.827Z,101481.03
2018-05-26T01:50:05.977Z,101475.39
2018-05-26T01:52:34.155Z,101470.19
2018-05-26T01:55:02.330Z,101469.50
2018-05-26T01:57:30.518Z,101466.83
2018-05-26T01:59:58.718Z,101467.37
2018-05-26T02:02:26.908Z,101466.59
2018-05-26T02:04:55.116Z,101464.02
2018-05-26T02:07:23.321Z,101466.70
2018-05-26T02:09:51.484Z,101471.77
2018-05-26T02:12:19.695Z,101467.14
2018-05-26T02:14:47.861Z,101477.34
2018-05-26T02:17:16.114Z,101477.09
2018-05-26T02:19:44.304Z,101475.91
2018-05-26T02:22:12.492Z,101476.09
2018-05-26T02:24:40.675Z,101474.06
2018-05-26T02:27:09.148Z,101465.20
2018-05-26T02:29:37.363Z,101462.86
2018-05-26T02:32:05.529Z,101466.83
2018-05-26T02:34:33.747Z,101462.81
2018-05-26T02:37:01.930Z,101461.80
2018-05-26T02:39:30.115Z,101462.34
2018-05-26T02:41:58.266Z,101465.13
2018-05-26T02:44:26.467Z,101463.87
2018-05-26T02:46:54.649Z,101464.09
2018-05-26T02:49:22.813Z,101469.52
2018-05-26T02:51:51.020Z,101466.84
2018-05-26T02:54:19.214Z,101462.97
2018-05-26T02:56:47.408Z,101475.09
2018-05-26T02:59:15.593Z,101467.75
2018-05-26T03:01:43.797Z,101468.66
2018-05-26T03:04:11.391Z,101473.10
2018-05-26T03:06:45.325Z,101471.01
2018-05-26T03:09:19.446Z,101474.02
2018-05-26T03:11:53.395Z,101473.22
2018-05-26T03:14:27.073Z,101470.17
2018-05-26T03:16:55.282Z,101470.87
2018-05-26T03:19:23.426Z,101464.76
2018-05-26T03:21:51.583Z,101467.61
2018-05-26T03:24:19.766Z,101466.82
2018-05-26T03:26:48.034Z,101464.98
2018-05-26T03:29:16.233Z,101465.09
2018-05-26T03:31:44.419Z,101476.07
2018-05-26T03:34:12.627Z,101474.45
2018-05-26T03:36:40.828Z,101476.87
2018-05-26T03:39:08.993Z,101476.17
2018-05-26T03:41:37.194Z,101476.65
2018-05-26T03:44:05.405Z,101486.11
2018-05-26T03:46:33.626Z,101483.55
2018-05-26T03:49:01.796Z,101486.66
2018-05-26T03:51:29.987Z,101486.66
2018-05-26T03:53:58.158Z,101493.27
2018-05-26T03:56:38.218Z,101494.71
2018-05-26T04:02:02.691Z,101496.48
2018-05-26T04:04:30.856Z,101503.17
2018-05-26T04:06:59.049Z,101503.23
2018-05-26T04:09:27.306Z,101508.09
2018-05-26T04:11:55.524Z,101511.45
2018-05-26T04:14:23.685Z,101517.87
2018-05-26T04:16:51.878Z,101517.44
2018-05-26T04:19:20.027Z,101512.16
2018-05-26T04:21:48.188Z,101512.63
2018-05-26T04:24:16.393Z,101520.69
2018-05-26T04:26:44.608Z,101519.28
2018-05-26T04:29:12.827Z,101524.56
2018-05-26T04:31:40.974Z,101525.57
2018-05-26T04:34:09.170Z,101521.09
2018-05-26T04:36:37.355Z,101526.77
2018-05-26T04:39:05.567Z,101529.77
2018-05-26T04:41:33.733Z,101532.44
2018-05-26T04:44:01.932Z,101537.25
2018-05-26T04:46:30.097Z,101533.60
2018-05-26T04:48:58.289Z,101530.28
2018-05-26T04:51:26.481Z,101521.42
2018-05-26T04:53:54.625Z,101531.11
2018-05-26T04:56:22.840Z,101537.63
2018-05-26T04:58:51.001Z,101541.06
2018-05-26T05:01:19.189Z,101539.08
2018-05-26T05:03:47.350Z,101543.74
2018-05-26T05:06:15.638Z,101549.78
2018-05-26T05:08:43.798Z,101547.47
2018-05-26T05:11:11.949Z,101552.46
2018-05-26T05:13:40.144Z,101553.80
2018-05-26T05:16:08.308Z,101558.08
2018-05-26T05:18:36.498Z,101560.28
2018-05-26T05:21:04.649Z,101561.63
2018-05-26T05:23:32.843Z,101568.86
2018-05-26T05:26:01.720Z,101565.78
2018-05-26T05:28:29.901Z,101573.02
2018-05-26T05:30:58.045Z,101564.91
2018-05-26T05:33:26.236Z,101570.72
2018-05-26T05:35:54.425Z,101578.94
2018-05-26T05:38:22.683Z,101580.81
2018-05-26T05:40:50.869Z,101575.34
2018-05-26T05:43:19.082Z,101582.49
2018-05-26T05:45:47.259Z,101581.14
2018-05-26T05:48:15.403Z,101582.51
2018-05-26T05:50:43.644Z,101582.49
2018-05-26T05:53:11.802Z,101585.05
2018-05-26T05:55:39.990Z,101594.95
2018-05-26T05:58:08.192Z,101595.23
2018-05-26T06:00:36.392Z,101587.80
2018-05-26T06:03:04.548Z,101595.82
2018-05-26T06:05:32.755Z,101596.78
2018-05-26T06:08:00.914Z,101603.42
2018-05-26T06:10:29.096Z,101595.03
2018-05-26T06:12:57.235Z,101595.00
2018-05-26T06:15:25.411Z,101598.52
2018-05-26T06:17:53.621Z,101600.20
2018-05-26T06:20:21.768Z,101609.95
2018-05-26T06:22:49.956Z,101609.41
2018-05-26T06:25:18.119Z,101609.88
2018-05-26T06:27:46.307Z,101615.81
2018-05-26T06:30:14.478Z,101612.50
2018-05-26T06:32:42.639Z,101615.61
2018-05-26T06:35:10.896Z,101621.45
2018-05-26T06:37:39.096Z,101618.16
2018-05-26T06:40:07.275Z,101620.25
2018-05-26T06:42:35.417Z,101619.28
2018-05-26T06:45:03.617Z,101618.11
2018-05-26T06:47:31.810Z,101613.21
2018-05-26T06:49:59.965Z,101612.21
2018-05-26T06:52:28.178Z,101616.42
2018-05-26T06:54:56.356Z,101610.37
2018-05-26T06:57:24.561Z,101612.06
2018-05-26T06:59:52.750Z,101611.03
2018-05-26T07:02:20.912Z,101602.97
2018-05-26T07:04:49.111Z,101611.59
2018-05-26T07:07:17.277Z,101605.33
2018-05-26T07:09:45.466Z,101606.02
2018-05-26T07:12:13.652Z,101605.22
2018-05-26T07:14:41.809Z,101607.40
2018-05-26T07:17:10.024Z,101599.51
2018-05-26T07:19:38.188Z,101597.48
2018-05-26T07:22:06.372Z,101598.75
2018-05-26T07:24:34.543Z,101597.42
2018-05-26T07:27:02.775Z,101599.63
2018-05-26T07:29:30.918Z,101592.84
2018-05-26T07:31:59.067Z,101591.03
2018-05-26T07:34:27.285Z,101599.59
2018-05-26T07:36:55.458Z,101600.23
2018-05-26T07:39:23.659Z,101598.19
2018-05-26T07:41:51.808Z,101606.74
2018-05-26T07:44:19.996Z,101605.13
2018-05-26T07:46:48.155Z,101602.40
2018-05-26T07:49:16.355Z,101610.16
2018-05-26T07:51:44.545Z,101609.29
2018-05-26T07:54:12.747Z,101599.63
2018-05-26T07:56:40.959Z,101601.28
2018-05-26T07:59:09.167Z,101594.88
2018-05-26T08:01:37.366Z,101599.28
2018-05-26T08:04:05.558Z,101593.53
2018-05-26T08:06:33.712Z,101607.41
2018-05-26T08:09:01.911Z,101599.23
2018-05-26T08:11:30.068Z,101605.52
2018-05-26T08:13:58.276Z,101600.30
2018-05-26T08:16:26.440Z,101603.58
2018-05-26T08:18:54.640Z,101607.51
2018-05-26T08:21:22.796Z,101607.38
2018-05-26T08:23:50.983Z,101611.86
2018-05-26T08:26:19.147Z,101617.97
2018-05-26T08:28:47.341Z,101612.95
2018-05-26T08:31:15.490Z,101617.17
2018-05-26T08:33:43.657Z,101617.18
2018-05-26T08:36:11.813Z,101614.84
2018-05-26T08:38:40.018Z,101616.20
2018-05-26T08:41:08.201Z,101613.88
2018-05-26T08:43:36.368Z,101616.36
2018-05-26T08:46:04.547Z,101617.28
2018-05-26T08:48:32.700Z,101616.59
2018-05-26T08:51:00.889Z,101622.34
2018-05-26T08:53:29.043Z,101619.36
2018-05-26T08:55:57.212Z,101621.33
2018-05-26T08:58:25.397Z,101623.95
2018-05-26T09:00:53.593Z,101615.70
2018-05-26T09:03:21.744Z,101618.46
2018-05-26T09:05:49.952Z,101617.77
2018-05-26T09:08:18.224Z,101621.02
2018-05-26T09:10:46.381Z,101611.69
2018-05-26T09:13:14.529Z,101613.46
2018-05-26T09:15:42.725Z,101620.44
2018-05-26T09:18:10.883Z,101619.38
2018-05-26T09:20:39.072Z,101613.98
2018-05-26T09:23:07.254Z,101616.73
2018-05-26T09:25:35.481Z,101618.48
2018-05-26T09:28:03.669Z,101618.77
2018-05-26T09:30:31.919Z,101615.16
2018-05-26T09:33:00.071Z,101616.94
2018-05-26T09:35:28.384Z,101615.31
2018-05-26T09:37:56.545Z,101611.11
2018-05-26T09:40:24.703Z,101610.92
2018-05-26T09:42:52.904Z,101603.08
2018-05-26T09:45:21.046Z,101607.52
2018-05-26T09:47:49.227Z,101614.20
2018-05-26T09:50:17.363Z,101608.21
2018-05-26T09:52:45.566Z,101614.65
2018-05-26T09:55:13.746Z,101609.80
2018-05-26T09:57:41.917Z,101614.17
2018-05-26T10:00:10.081Z,101607.80
2018-05-26T10:02:38.264Z,101603.77
2018-05-26T10:05:06.463Z,101606.09
2018-05-26T10:07:34.663Z,101601.48
2018-05-26T10:10:02.892Z,101598.66
2018-05-26T10:12:31.053Z,101606.81
2018-05-26T10:14:59.227Z,101598.48
2018-05-26T10:17:28.831Z,101603.87
2018-05-26T10:19:57.017Z,101591.50
2018-05-26T10:22:25.384Z,101595.63
2018-05-26T10:24:54.375Z,101592.77
2018-05-26T10:27:22.560Z,101594.54
2018-05-26T10:29:50.748Z,101585.40
2018-05-26T10:32:18.907Z,101584.30
2018-05-26T10:34:47.119Z,101589.97
2018-05-26T10:37:15.283Z,101588.89
2018-05-26T10:39:43.464Z,101589.28
2018-05-26T10:42:11.616Z,101583.23
2018-05-26T10:44:39.904Z,101584.63
2018-05-26T10:47:08.115Z,101586.34
2018-05-26T10:49:36.274Z,101587.44
2018-05-26T10:52:04.451Z,101587.91
2018-05-26T10:54:32.651Z,101582.95
2018-05-26T10:57:00.839Z,101582.47
2018-05-26T10:59:28.979Z,101581.30
2018-05-26T11:01:57.200Z,101580.00
2018-05-26T11:04:25.381Z,101583.03
2018-05-26T11:06:53.584Z,101581.64
2018-05-26T11:09:21.744Z,101583.00
2018-05-26T11:11:49.938Z,101585.17
2018-05-26T11:14:18.092Z,101587.02
2018-05-26T11:16:46.286Z,101588.48
2018-05-26T11:19:14.485Z,101583.92
2018-05-26T11:21:42.660Z,101597.38
2018-05-26T11:24:10.926Z,101589.52
2018-05-26T11:26:39.003Z,101586.37
2018-05-26T11:29:07.211Z,101585.62
2018-05-26T11:31:35.371Z,101578.50
2018-05-26T11:34:03.547Z,101582.51
2018-05-26T11:36:31.704Z,101581.12
2018-05-26T11:38:59.911Z,101583.63
2018-05-26T11:41:28.108Z,101577.05
2018-05-26T11:43:56.251Z,101575.87
2018-05-26T11:46:24.457Z,101577.69
2018-05-26T11:48:52.605Z,101575.63
2018-05-26T11:51:20.778Z,101578.70
2018-05-26T11:53:48.951Z,101583.64
2018-05-26T11:56:17.123Z,101587.74
2018-05-26T11:58:45.268Z,101586.55
2018-05-26T12:01:13.431Z,101579.30
2018-05-26T12:03:41.616Z,101576.44
2018-05-26T12:06:09.749Z,101577.02
2018-05-26T12:08:38.038Z,101574.38
2018-05-26T12:11:06.277Z,101573.96
2018-05-26T12:13:34.427Z,101574.75
2018-05-26T12:16:02.598Z,101574.12
2018-05-26T12:18:30.752Z,101574.88
2018-05-26T12:20:59.013Z,101572.52
2018-05-26T12:23:27.273Z,101579.28
2018-05-26T12:25:55.994Z,101574.09
2018-05-26T12:28:24.175Z,101573.91
2018-05-26T12:30:52.362Z,101563.62
2018-05-26T12:33:20.620Z,101574.48
2018-05-26T12:35:48.778Z,101569.92
2018-05-26T12:38:16.950Z,101572.91
2018-05-26T12:40:45.115Z,101562.28
2018-05-26T12:43:13.311Z,101577.73
2018-05-26T12:45:41.526Z,101574.86
2018-05-26T12:48:09.703Z,101568.84
2018-05-26T12:50:37.905Z,101574.19
2018-05-26T12:53:06.063Z,101576.36
2018-05-26T12:55:34.249Z,101574.95
2018-05-26T12:58:02.417Z,101570.28
2018-05-26T13:00:30.595Z,101565.58
2018-05-26T13:02:58.785Z,101574.19
2018-05-26T13:05:26.974Z,101567.58
2018-05-26T13:07:55.186Z,101558.16
2018-05-26T13:10:23.373Z,101562.67
2018-05-26T13:12:51.547Z,101552.44
2018-05-26T13:15:19.716Z,101548.60
2018-05-26T13:17:47.922Z,101551.08
2018-05-26T13:20:16.103Z,101549.27
2018-05-26T13:22:44.292Z,101541.70
2018-05-26T13:25:12.445Z,101548.16
2018-05-26T13:27:40.651Z,101535.78
2018-05-26T13:30:08.813Z,101534.35
2018-05-26T13:32:37.065Z,101532.64
2018-05-26T13:35:05.254Z,101532.31
2018-05-26T13:37:33.463Z,101527.37
2018-05-26T13:40:01.658Z,101533.60
2018-05-26T13:42:29.831Z,101529.55
2018-05-26T13:44:58.021Z,101527.85
2018-05-26T13:47:26.191Z,101529.47
2018-05-26T13:49:54.395Z,101525.48
2018-05-26T13:52:22.580Z,101530.33
2018-05-26T13:54:50.714Z,101516.73
2018-05-26T13:57:18.904Z,101517.10
2018-05-26T13:59:47.094Z,101517.27
2018-05-26T14:02:15.283Z,101522.80
2018-05-26T14:04:43.459Z,101514.23
2018-05-26T14:07:11.662Z,101518.34
2018-05-26T14:09:39.865Z,101519.28
2018-05-26T14:12:08.035Z,101516.02
2018-05-26T14:14:36.226Z,101515.42
2018-05-26T14:17:04.391Z,101506.84
2018-05-26T14:19:32.569Z,101507.84
2018-05-26T14:22:00.743Z,101500.27
2018-05-26T14:24:31.748Z,101497.78
2018-05-26T14:26:59.920Z,101494.63
2018-05-26T14:29:28.090Z,101485.36
2018-05-26T14:31:56.263Z,101488.50
2018-05-26T14:34:24.456Z,101486.69
2018-05-26T14:36:52.621Z,101492.83
2018-05-26T14:39:20.796Z,101481.22
2018-05-26T14:41:48.994Z,101482.23
2018-05-26T14:44:17.177Z,101485.48
2018-05-26T14:46:45.368Z,101484.27
2018-05-26T14:49:13.522Z,101483.82
2018-05-26T14:51:41.716Z,101484.61
2018-05-26T14:54:09.916Z,101476.96
2018-05-26T14:56:38.081Z,101478.16
2018-05-26T14:59:06.247Z,101482.58
2018-05-26T15:01:34.458Z,101475.64
2018-05-26T15:04:02.645Z,101473.10
2018-05-26T15:06:30.831Z,101473.89
2018-05-26T15:08:58.998Z,101471.54
2018-05-26T15:11:27.207Z,101468.36
2018-05-26T15:13:55.381Z,101473.08
2018-05-26T15:16:23.564Z,101470.23
2018-05-26T15:18:51.710Z,101468.23
2018-05-26T15:21:19.973Z,101471.50
2018-05-26T15:23:48.120Z,101467.68
2018-05-26T15:26:16.279Z,101460.22
2018-05-26T15:28:44.490Z,101462.48
2018-05-26T15:31:12.709Z,101461.30
2018-05-26T15:33:40.879Z,101461.30
2018-05-26T15:36:09.049Z,101458.93
2018-05-26T15:38:37.268Z,101455.16
2018-05-26T15:41:05.429Z,101456.14
2018-05-26T15:43:33.604Z,101449.47
2018-05-26T15:46:01.772Z,101450.19
2018-05-26T15:48:29.927Z,101449.41
2018-05-26T15:50:58.127Z,101450.56
2018-05-26T15:53:26.283Z,101446.98
2018-05-26T15:55:54.479Z,101445.06
2018-05-26T15:58:22.727Z,101448.32
2018-05-26T16:00:50.898Z,101444.37
2018-05-26T16:03:19.080Z,101439.62
2018-05-26T16:05:47.254Z,101441.75
2018-05-26T16:08:15.428Z,101443.01
2018-05-26T16:10:43.570Z,101443.46
2018-05-26T16:13:11.763Z,101440.34
2018-05-26T16:15:39.899Z,101440.58
2018-05-26T16:18:08.081Z,101436.42
2018-05-26T16:20:36.393Z,101431.13
2018-05-26T16:23:04.572Z,101440.08
2018-05-26T16:25:32.759Z,101436.55
2018-05-26T16:28:00.898Z,101442.86
2018-05-26T16:30:29.100Z,101434.97
2018-05-26T16:32:57.251Z,101435.05
2018-05-26T16:35:25.460Z,101438.28
2018-05-26T16:37:53.628Z,101434.22
2018-05-26T16:40:21.825Z,101442.02
2018-05-26T16:42:50.004Z,101446.41
2018-05-26T16:45:18.191Z,101437.47
2018-05-26T16:47:46.326Z,101441.03
2018-05-26T16:50:14.547Z,101439.16
2018-05-26T16:52:42.721Z,101440.26
2018-05-26T16:55:10.887Z,101438.11
2018-05-26T16:57:39.091Z,101439.64
2018-05-26T17:00:07.274Z,101434.57
2018-05-26T17:02:35.575Z,101437.69
2018-05-26T17:07:31.077Z,101441.68
2018-05-26T17:09:59.236Z,101437.97
2018-05-26T17:12:27.391Z,101440.20
2018-05-26T17:14:55.604Z,101435.11
2018-05-26T17:17:23.775Z,101443.92
2018-05-26T17:19:51.968Z,101446.14
2018-05-26T17:22:20.125Z,101441.81
2018-05-26T17:24:48.307Z,101446.22
2018-05-26T17:27:16.452Z,101446.52
2018-05-26T17:29:44.605Z,101449.52
2018-05-26T17:32:12.783Z,101442.55
2018-05-26T17:34:40.974Z,101445.20
2018-05-26T17:37:09.180Z,101441.66
2018-05-26T17:39:38.742Z,101448.06
2018-05-26T17:42:06.930Z,101449.03
2018-05-26T17:44:35.124Z,101447.22
2018-05-26T17:47:03.294Z,101444.19
2018-05-26T17:49:31.494Z,101448.55
2018-05-26T17:51:59.641Z,101444.83
2018-05-26T17:54:27.779Z,101450.91
2018-05-26T17:56:55.997Z,101449.98
2018-05-26T17:59:24.131Z,101451.10
2018-05-26T18:01:52.325Z,101445.77
2018-05-26T18:04:20.504Z,101453.25
2018-05-26T18:06:48.644Z,101451.32
2018-05-26T18:09:16.815Z,101450.03
2018-05-26T18:11:45.065Z,101454.33
2018-05-26T18:14:13.237Z,101457.63
2018-05-26T18:16:41.502Z,101453.34
2018-05-26T18:19:09.639Z,101455.99
2018-05-26T18:21:37.824Z,101455.75
2018-05-26T18:24:06.469Z,101459.42
2018-05-26T18:26:34.655Z,101455.95
2018-05-26T18:29:02.806Z,101455.78
2018-05-26T18:31:31.011Z,101451.67
2018-05-26T18:33:59.215Z,101449.84
2018-05-26T18:36:27.474Z,101449.21
2018-05-26T18:38:55.625Z,101449.50
2018-05-26T18:41:23.803Z,101457.64
2018-05-26T18:43:52.016Z,101451.88
2018-05-26T18:46:20.184Z,101442.22
2018-05-26T18:48:48.419Z,101449.14
2018-05-26T18:51:16.548Z,101448.63
2018-05-26T18:53:44.730Z,101449.39
2018-05-26T18:56:12.907Z,101452.52
2018-05-26T18:58:41.059Z,101458.44
2018-05-26T19:01:09.262Z,101461.30
2018-05-26T19:03:37.418Z,101463.22
2018-05-26T19:06:05.683Z,101461.31
2018-05-26T19:08:33.830Z,101459.56
2018-05-26T19:11:02.028Z,101460.55
2018-05-26T19:13:30.199Z,101463.43
2018-05-26T19:15:58.458Z,101464.42
2018-05-26T19:18:26.586Z,101466.42
2018-05-26T19:20:54.737Z,101463.83
2018-05-26T19:23:22.924Z,101462.72
2018-05-26T19:25:51.093Z,101465.91
2018-05-26T19:28:19.296Z,101461.53
2018-05-26T19:30:47.471Z,101471.39
2018-05-26T19:33:15.685Z,101474.31
2018-05-26T19:35:43.875Z,101472.56
2018-05-26T19:38:12.047Z,101470.00
2018-05-26T19:40:40.233Z,101469.88
2018-05-26T19:43:08.418Z,101469.38
2018-05-26T19:45:36.672Z,101472.88
2018-05-26T19:48:04.828Z,101482.61
2018-05-26T19:50:33.007Z,101478.91
2018-05-26T19:53:01.192Z,101489.34
2018-05-26T19:55:29.360Z,101490.61
2018-05-26T19:57:57.552Z,101493.38
2018-05-26T20:00:25.698Z,101489.75
2018-05-26T20:02:53.901Z,101493.45
2018-05-26T20:05:22.151Z,101489.20
2018-05-26T20:07:50.287Z,101495.66
2018-05-26T20:10:18.469Z,101499.34
2018-05-26T20:12:46.616Z,101503.48
2018-05-26T20:15:14.815Z,101505.55
2018-05-26T20:17:42.953Z,101505.05
2018-05-26T20:20:11.141Z,101509.25
2018-05-26T20:22:39.307Z,101508.81
2018-05-26T20:25:07.456Z,101508.53
2018-05-26T20:27:35.634Z,101507.31
2018-05-26T20:30:03.792Z,101506.27
2018-05-26T20:32:31.967Z,101503.30
2018-05-26T20:35:00.117Z,101505.53
2018-05-26T20:37:28.316Z,101504.53
2018-05-26T20:39:56.497Z,101501.63
2018-05-26T20:42:24.724Z,101495.22
2018-05-26T20:44:52.874Z,101498.37
2018-05-26T20:47:21.025Z,101494.62
2018-05-26T20:49:49.213Z,101499.97
2018-05-26T20:52:17.355Z,101497.19
2018-05-26T20:54:45.536Z,101500.05
2018-05-26T20:57:13.700Z,101498.66
2018-05-26T20:59:41.841Z,101505.27
2018-05-26T21:02:10.014Z,101498.23
2018-05-26T21:04:38.158Z,101503.01
2018-05-26T21:07:06.369Z,101503.73
2018-05-26T21:09:34.553Z,101502.10
2018-05-26T21:12:02.736Z,101498.26
2018-05-26T21:14:30.900Z,101497.20
2018-05-26T21:16:59.059Z,101492.29
2018-05-26T21:19:27.235Z,101488.19
2018-05-26T21:21:55.381Z,101489.08
2018-05-26T21:24:23.568Z,101495.48
2018-05-26T21:26:51.729Z,101490.66
2018-05-26T21:29:19.941Z,101489.74
2018-05-26T21:31:48.129Z,101492.16
2018-05-26T21:34:16.725Z,101492.98
2018-05-26T21:36:44.928Z,101502.32
2018-05-26T21:39:13.066Z,101503.01
2018-05-26T21:41:41.225Z,101505.22
2018-05-26T21:44:09.396Z,101505.64
2018-05-26T21:46:37.566Z,101494.70
2018-05-26T21:49:05.751Z,101491.81
2018-05-26T21:51:33.891Z,101491.66
2018-05-26T21:54:02.084Z,101495.77
2018-05-26T21:56:30.333Z,101495.13
2018-05-26T21:58:58.518Z,101497.10
2018-05-26T22:01:26.700Z,101502.14
2018-05-26T22:03:54.886Z,101498.33
2018-05-26T22:06:23.063Z,101498.53
2018-05-26T22:08:51.244Z,101500.73
2018-05-26T22:11:19.434Z,101497.70
2018-05-26T22:13:47.602Z,101495.05
2018-05-26T22:16:15.804Z,101493.55
2018-05-26T22:18:44.001Z,101484.92
2018-05-26T22:21:12.174Z,101488.10
2018-05-26T22:23:40.412Z,101478.66
2018-05-26T22:26:08.571Z,101483.06
2018-05-26T22:28:36.769Z,101478.73
2018-05-26T22:31:04.940Z,101479.27
2018-05-26T22:33:33.120Z,101481.56
2018-05-26T22:36:01.275Z,101486.80
2018-05-26T22:38:29.519Z,101489.92
2018-05-26T22:40:57.667Z,101486.42
2018-05-26T22:43:25.823Z,101484.59
2018-05-26T22:45:54.018Z,101486.09
2018-05-26T22:48:22.181Z,101483.27
2018-05-26T22:50:50.358Z,101480.37
2018-05-26T22:53:18.531Z,101478.16
2018-05-26T22:55:46.740Z,101477.87
2018-05-26T22:58:14.909Z,101477.52
2018-05-26T23:00:43.043Z,101480.84
2018-05-26T23:03:11.230Z,101480.64
2018-05-26T23:05:39.385Z,101483.17
2018-05-26T23:08:07.529Z,101485.06
2018-05-26T23:10:35.713Z,101497.98
2018-05-26T23:13:03.865Z,101492.59
2018-05-26T23:15:32.062Z,101491.00
2018-05-26T23:18:00.252Z,101492.99
2018-05-26T23:20:28.423Z,101485.80
2018-05-26T23:22:56.621Z,101485.64
2018-05-26T23:25:24.775Z,101480.53
2018-05-26T23:27:52.935Z,101477.47
2018-05-26T23:30:21.107Z,101476.88
2018-05-26T23:32:49.260Z,101472.12
2018-05-26T23:35:17.432Z,101465.84
2018-05-26T23:37:45.620Z,101468.09
2018-05-26T23:40:13.799Z,101466.77
2018-05-26T23:42:41.939Z,101461.08
2018-05-26T23:45:10.116Z,101457.27
2018-05-26T23:47:38.318Z,101456.19
2018-05-26T23:50:06.493Z,101456.94
2018-05-26T23:52:34.702Z,101454.88
2018-05-26T23:55:02.864Z,101448.98
2018-05-26T23:57:31.041Z,101454.06
2018-05-26T23:59:59.252Z,101450.30
